createdAt,value
2018-07-02T00:00:19.006Z,69.50
2018-07-02T00:02:47.846Z,69.80
2018-07-02T00:05:16.663Z,70.40
2018-07-02T00:07:45.474Z,70.30
2018-07-02T00:12:42.780Z,70.80
2018-07-02T00:15:11.574Z,71.10
2018-07-02T00:17:40.816Z,71.00
2018-07-02T00:20:09.644Z,71.50
2018-07-02T00:22:38.455Z,71.10
2018-07-02T00:25:07.267Z,71.00
2018-07-02T00:27:36.078Z,71.40
2018-07-02T00:32:33.411Z,71.40
2018-07-02T00:35:02.203Z,71.70
2018-07-02T00:37:31.010Z,71.90
2018-07-02T00:39:59.806Z,72.20
2018-07-02T00:42:28.612Z,72.60
2018-07-02T00:44:57.410Z,72.70
2018-07-02T00:47:26.222Z,72.40
2018-07-02T00:49:55.022Z,72.40
2018-07-02T00:52:23.835Z,72.50
2018-07-02T00:54:52.630Z,73.00
2018-07-02T00:57:21.438Z,73.30
2018-07-02T00:59:50.242Z,74.40
2018-07-02T01:02:19.062Z,73.90
2018-07-02T01:04:47.860Z,73.90
2018-07-02T01:07:16.658Z,74.00
2018-07-02T01:09:45.470Z,74.40
2018-07-02T01:12:14.281Z,74.10
2018-07-02T01:14:43.087Z,74.40
2018-07-02T01:17:11.906Z,74.80
2018-07-02T01:19:40.709Z,74.80
2018-07-02T01:22:09.514Z,75.00
2018-07-02T01:27:06.910Z,75.10
2018-07-02T01:29:36.511Z,75.30
2018-07-02T01:32:05.323Z,75.70
2018-07-02T01:34:34.123Z,75.90
2018-07-02T01:37:02.945Z,75.80
2018-07-02T01:39:32.300Z,76.30
2018-07-02T01:42:01.107Z,76.50
2018-07-02T01:44:29.919Z,76.60
2018-07-02T01:46:58.725Z,76.90
2018-07-02T01:49:27.535Z,76.90
2018-07-02T01:51:56.365Z,76.90
2018-07-02T01:54:25.185Z,76.80
2018-07-02T01:56:54.036Z,77.10
2018-07-02T01:59:22.855Z,77.10
2018-07-02T02:01:51.678Z,77.50
2018-07-02T02:04:20.486Z,77.90
2018-07-02T02:06:49.302Z,77.80
2018-07-02T02:09:18.119Z,77.90
2018-07-02T02:11:46.920Z,77.70
2018-07-02T02:14:15.740Z,78.20
2018-07-02T02:16:44.547Z,78.10
2018-07-02T02:19:13.854Z,78.30
2018-07-02T02:21:42.657Z,78.50
2018-07-02T02:24:11.668Z,78.80
2018-07-02T02:26:40.470Z,79.00
2018-07-02T02:29:09.283Z,78.90
2018-07-02T02:31:38.082Z,79.60
2018-07-02T02:34:06.886Z,79.10
2018-07-02T02:36:35.678Z,79.20
2018-07-02T02:39:06.804Z,79.30
2018-07-02T02:41:35.662Z,79.30
2018-07-02T02:44:04.895Z,79.60
2018-07-02T02:46:33.697Z,79.70
2018-07-02T02:49:02.495Z,79.90
2018-07-02T02:51:31.308Z,80.00
2018-07-02T02:54:00.102Z,80.10
2018-07-02T02:56:28.916Z,80.20
2018-07-02T02:58:57.722Z,80.30
2018-07-02T03:01:26.531Z,80.50
2018-07-02T03:03:55.343Z,80.30
2018-07-02T03:06:24.135Z,80.40
2018-07-02T03:08:52.942Z,80.20
2018-07-02T03:11:21.738Z,80.20
2018-07-02T03:13:50.553Z,80.30
2018-07-02T03:16:19.359Z,79.90
2018-07-02T03:21:16.661Z,79.60
2018-07-02T03:23:45.567Z,79.30
2018-07-02T03:26:14.383Z,78.80
2018-07-02T03:28:43.182Z,78.70
2018-07-02T03:31:11.979Z,78.20
2018-07-02T03:33:40.786Z,77.50
2018-07-02T03:36:09.591Z,77.00
2018-07-02T03:38:38.390Z,76.30
2018-07-02T03:41:07.201Z,75.60
2018-07-02T03:43:36.010Z,75.00
2018-07-02T03:46:04.815Z,74.20
2018-07-02T03:48:33.614Z,73.50
2018-07-02T03:51:02.655Z,73.10
2018-07-02T03:53:31.636Z,72.10
2018-07-02T03:56:00.723Z,71.00
2018-07-02T03:58:29.545Z,69.60
2018-07-02T04:00:58.346Z,69.10
2018-07-02T04:03:27.153Z,68.70
2018-07-02T04:05:55.947Z,67.70
2018-07-02T04:08:24.762Z,66.30
2018-07-02T04:10:53.559Z,65.20
2018-07-02T04:13:22.358Z,64.50
2018-07-02T04:15:51.174Z,62.20
2018-07-02T04:18:19.977Z,61.10
2018-07-02T04:20:48.819Z,61.10
2018-07-02T04:23:17.634Z,60.80
2018-07-02T04:25:46.526Z,61.40
2018-07-02T04:28:15.327Z,60.80
2018-07-02T04:30:44.128Z,60.60
2018-07-02T04:33:12.953Z,60.60
2018-07-02T04:35:41.769Z,60.40
2018-07-02T04:38:10.607Z,59.30
2018-07-02T04:40:39.414Z,58.70
2018-07-02T04:43:08.246Z,58.00
2018-07-02T04:45:37.055Z,57.00
2018-07-02T04:48:06.080Z,56.40
2018-07-02T04:50:34.932Z,55.80
2018-07-02T04:53:03.709Z,55.30
2018-07-02T04:55:32.665Z,55.00
2018-07-02T04:58:01.830Z,54.90
2018-07-02T05:00:30.737Z,53.70
2018-07-02T05:02:59.615Z,52.10
2018-07-02T05:05:28.432Z,51.50
2018-07-02T05:07:57.422Z,50.50
2018-07-02T05:10:26.051Z,49.70
2018-07-02T05:12:54.841Z,50.40
2018-07-02T05:15:23.672Z,50.30
2018-07-02T05:17:52.509Z,50.00
2018-07-02T05:20:21.328Z,48.40
2018-07-02T05:22:50.124Z,46.10
2018-07-02T05:25:18.948Z,45.40
2018-07-02T05:27:47.789Z,44.30
2018-07-02T05:30:16.609Z,43.70
2018-07-02T05:32:45.411Z,41.20
2018-07-02T05:35:14.209Z,38.50
2018-07-02T05:37:43.013Z,34.70
2018-07-02T05:40:11.837Z,31.60
2018-07-02T05:42:40.639Z,29.70
2018-07-02T05:45:09.443Z,28.20
2018-07-02T05:47:38.244Z,28.80
2018-07-02T05:50:07.114Z,29.80
2018-07-02T05:52:35.919Z,30.20
2018-07-02T05:55:04.890Z,29.90
2018-07-02T05:57:33.707Z,28.60
2018-07-02T06:00:02.591Z,27.80
2018-07-02T06:02:31.383Z,26.90
2018-07-02T06:05:00.299Z,26.20
2018-07-02T06:07:29.000Z,25.90
2018-07-02T06:09:58.441Z,25.60
2018-07-02T06:12:27.245Z,25.80
2018-07-02T06:14:56.065Z,27.70
2018-07-02T06:17:24.859Z,29.10
2018-07-02T06:19:53.667Z,29.60
2018-07-02T06:22:22.462Z,30.40
2018-07-02T06:24:51.338Z,30.60
2018-07-02T06:27:20.091Z,30.50
2018-07-02T06:29:48.906Z,30.70
2018-07-02T06:32:17.691Z,30.80
2018-07-02T06:34:46.490Z,29.60
2018-07-02T06:37:15.290Z,28.80
2018-07-02T06:39:44.166Z,28.30
2018-07-02T06:42:12.903Z,29.10
2018-07-02T06:44:41.703Z,28.60
2018-07-02T06:49:39.002Z,30.90
2018-07-02T06:52:07.815Z,30.90
2018-07-02T06:54:36.619Z,31.60
2018-07-02T06:57:05.526Z,31.80
2018-07-02T06:59:34.313Z,31.20
2018-07-02T07:02:03.114Z,31.40
2018-07-02T07:04:31.919Z,31.30
2018-07-02T07:07:00.736Z,29.80
2018-07-02T07:09:29.563Z,28.80
2018-07-02T07:11:58.371Z,29.10
2018-07-02T07:14:27.195Z,28.90
2018-07-02T07:16:56.020Z,28.90
2018-07-02T07:19:24.819Z,29.30
2018-07-02T07:21:53.634Z,30.00
2018-07-02T07:24:22.428Z,30.70
2018-07-02T07:26:51.239Z,33.50
2018-07-02T07:29:20.039Z,35.50
2018-07-02T07:31:48.835Z,34.60
2018-07-02T07:34:17.641Z,33.10
2018-07-02T07:36:46.535Z,32.80
2018-07-02T07:39:15.303Z,33.10
2018-07-02T07:41:44.108Z,33.40
2018-07-02T07:44:12.906Z,33.30
2018-07-02T07:46:41.711Z,35.20
2018-07-02T07:49:10.506Z,36.30
2018-07-02T07:51:39.329Z,38.00
2018-07-02T07:54:08.303Z,40.00
2018-07-02T07:56:37.111Z,40.30
2018-07-02T07:59:05.925Z,40.30
2018-07-02T08:01:34.751Z,40.00
2018-07-02T08:04:03.550Z,41.80
2018-07-02T08:06:32.351Z,43.60
2018-07-02T08:09:01.151Z,43.30
2018-07-02T08:11:29.955Z,43.60
2018-07-02T08:13:58.734Z,42.60
2018-07-02T08:16:27.534Z,42.10
2018-07-02T08:18:56.364Z,41.20
2018-07-02T08:21:25.141Z,40.10
2018-07-02T08:23:53.938Z,40.40
2018-07-02T08:26:23.039Z,39.30
2018-07-02T08:28:51.835Z,39.90
2018-07-02T08:31:20.673Z,42.20
2018-07-02T08:33:49.503Z,43.80
2018-07-02T08:36:18.286Z,41.40
2018-07-02T08:38:47.143Z,41.00
2018-07-02T08:41:15.955Z,39.50
2018-07-02T08:43:44.772Z,38.30
2018-07-02T08:46:13.571Z,38.20
2018-07-02T08:48:42.380Z,39.00
2018-07-02T08:51:11.191Z,38.90
2018-07-02T08:53:39.998Z,39.70
2018-07-02T08:56:08.794Z,40.50
2018-07-02T08:58:38.204Z,38.00
2018-07-02T09:01:07.315Z,36.70
2018-07-02T09:03:36.107Z,35.40
2018-07-02T09:06:05.119Z,36.00
2018-07-02T09:08:33.924Z,38.40
2018-07-02T09:11:02.718Z,38.20
2018-07-02T09:13:31.901Z,35.30
2018-07-02T09:16:00.705Z,34.20
2018-07-02T09:18:29.486Z,34.70
2018-07-02T09:20:58.288Z,35.60
2018-07-02T09:23:27.091Z,34.70
2018-07-02T09:25:55.890Z,35.70
2018-07-02T09:28:24.687Z,34.00
2018-07-02T09:30:53.487Z,34.30
2018-07-02T09:33:22.293Z,34.90
2018-07-02T09:35:51.103Z,35.50
2018-07-02T09:38:19.900Z,34.30
2018-07-02T09:40:48.827Z,34.20
2018-07-02T09:43:17.622Z,34.30
2018-07-02T09:45:46.443Z,32.90
2018-07-02T09:48:15.231Z,33.60
2018-07-02T09:50:44.036Z,32.90
2018-07-02T09:53:12.829Z,33.70
2018-07-02T09:55:41.610Z,33.20
2018-07-02T09:58:10.425Z,33.10
2018-07-02T10:00:39.270Z,32.20
2018-07-02T10:03:09.250Z,31.80
2018-07-02T10:05:38.244Z,30.90
2018-07-02T10:08:07.178Z,30.80
2018-07-02T10:10:35.996Z,31.90
2018-07-02T10:13:04.809Z,31.80
2018-07-02T10:15:33.619Z,31.00
2018-07-02T10:18:02.452Z,30.80
2018-07-02T10:20:31.823Z,30.30
2018-07-02T10:23:00.935Z,30.50
2018-07-02T10:27:58.323Z,29.00
2018-07-02T10:30:27.128Z,30.00
2018-07-02T10:32:55.926Z,30.90
2018-07-02T10:35:24.747Z,32.00
2018-07-02T10:37:53.779Z,33.40
2018-07-02T10:40:22.563Z,33.30
2018-07-02T10:42:51.379Z,34.00
2018-07-02T10:45:20.175Z,33.00
2018-07-02T10:47:48.995Z,33.40
2018-07-02T10:50:17.860Z,34.20
2018-07-02T10:55:15.112Z,34.10
2018-07-02T10:57:43.914Z,32.10
2018-07-02T11:00:12.732Z,32.90
2018-07-02T11:02:41.846Z,32.80
2018-07-02T11:07:39.155Z,33.00
2018-07-02T11:10:07.954Z,33.00
2018-07-02T11:12:36.757Z,32.90
2018-07-02T11:15:05.566Z,33.90
2018-07-02T11:17:34.383Z,34.60
2018-07-02T11:20:03.228Z,34.50
2018-07-02T11:22:32.038Z,35.10
2018-07-02T11:25:00.870Z,34.30
2018-07-02T11:27:29.687Z,34.40
2018-07-02T11:29:58.588Z,33.70
2018-07-02T11:32:27.910Z,33.50
2018-07-02T11:34:56.703Z,32.20
2018-07-02T11:37:25.548Z,33.10
2018-07-02T11:39:54.346Z,32.90
2018-07-02T11:42:23.171Z,33.80
2018-07-02T11:44:52.030Z,33.50
2018-07-02T11:47:20.844Z,33.90
2018-07-02T11:49:49.646Z,34.40
2018-07-02T11:52:18.905Z,34.90
2018-07-02T11:54:47.683Z,33.10
2018-07-02T11:57:16.503Z,33.00
2018-07-02T11:59:45.312Z,33.30
2018-07-02T12:02:14.159Z,33.70
2018-07-02T12:04:42.980Z,32.30
2018-07-02T12:07:11.823Z,32.70
2018-07-02T12:09:40.643Z,32.20
2018-07-02T12:12:09.442Z,32.50
2018-07-02T12:14:38.256Z,32.90
2018-07-02T12:17:07.062Z,33.00
2018-07-02T12:19:35.896Z,34.40
2018-07-02T12:22:05.596Z,33.40
2018-07-02T12:24:35.134Z,33.80
2018-07-02T12:27:03.966Z,33.50
2018-07-02T12:29:32.923Z,33.10
2018-07-02T12:32:01.827Z,34.00
2018-07-02T12:34:30.613Z,33.50
2018-07-02T12:36:59.476Z,33.50
2018-07-02T12:41:56.831Z,32.50
2018-07-02T12:44:25.639Z,32.80
2018-07-02T12:46:54.430Z,33.30
2018-07-02T12:49:23.241Z,33.30
2018-07-02T12:51:52.038Z,34.30
2018-07-02T12:54:20.914Z,33.10
2018-07-02T12:56:49.644Z,33.00
2018-07-02T12:59:18.438Z,32.60
2018-07-02T13:04:15.852Z,33.40
2018-07-02T13:06:44.623Z,31.80
2018-07-02T13:09:13.647Z,31.20
2018-07-02T13:11:42.972Z,31.80
2018-07-02T13:14:12.227Z,32.00
2018-07-02T13:16:41.035Z,31.40
2018-07-02T13:19:09.844Z,31.70
2018-07-02T13:21:38.903Z,31.40
2018-07-02T13:24:07.729Z,31.40
2018-07-02T13:26:36.522Z,32.00
2018-07-02T13:29:05.339Z,31.70
2018-07-02T13:31:34.144Z,31.90
2018-07-02T13:34:03.287Z,31.70
2018-07-02T13:36:32.084Z,31.60
2018-07-02T13:39:00.887Z,32.30
2018-07-02T13:41:29.704Z,32.90
2018-07-02T13:43:58.494Z,32.80
2018-07-02T13:46:27.520Z,30.90
2018-07-02T13:48:56.317Z,31.40
2018-07-02T13:51:25.123Z,30.60
2018-07-02T13:53:53.933Z,31.80
2018-07-02T13:56:22.783Z,33.40
2018-07-02T13:58:51.575Z,32.60
2018-07-02T14:01:20.389Z,33.20
2018-07-02T14:03:49.203Z,33.20
2018-07-02T14:06:17.993Z,32.80
2018-07-02T14:08:46.800Z,32.50
2018-07-02T14:11:15.619Z,31.90
2018-07-02T14:13:44.461Z,31.50
2018-07-02T14:16:13.257Z,32.30
2018-07-02T14:18:42.078Z,32.20
2018-07-02T14:21:10.898Z,31.80
2018-07-02T14:23:39.711Z,32.00
2018-07-02T14:26:08.518Z,32.30
2018-07-02T14:28:37.324Z,32.00
2018-07-02T14:31:06.124Z,32.70
2018-07-02T14:33:34.928Z,31.60
2018-07-02T14:36:03.730Z,31.80
2018-07-02T14:38:32.537Z,31.80
2018-07-02T14:41:01.336Z,30.60
2018-07-02T14:43:30.147Z,31.40
2018-07-02T14:45:58.940Z,30.50
2018-07-02T14:48:27.759Z,30.70
2018-07-02T14:50:56.591Z,30.10
2018-07-02T14:53:25.359Z,30.20
2018-07-02T14:55:54.155Z,29.90
2018-07-02T14:58:22.954Z,30.40
2018-07-02T15:00:51.759Z,30.00
2018-07-02T15:03:20.562Z,29.50
2018-07-02T15:05:49.363Z,29.40
2018-07-02T15:08:18.174Z,30.00
2018-07-02T15:10:46.966Z,30.10
2018-07-02T15:13:15.780Z,30.50
2018-07-02T15:15:44.587Z,30.00
2018-07-02T15:18:13.928Z,30.10
2018-07-02T15:20:42.683Z,30.30
2018-07-02T15:23:11.484Z,30.50
2018-07-02T15:25:40.303Z,30.90
2018-07-02T15:28:09.114Z,32.30
2018-07-02T15:30:37.933Z,31.90
2018-07-02T15:33:06.744Z,32.10
2018-07-02T15:35:35.557Z,32.50
2018-07-02T15:38:04.531Z,31.70
2018-07-02T15:40:33.347Z,31.40
2018-07-02T15:43:02.151Z,31.40
2018-07-02T15:45:30.971Z,31.60
2018-07-02T15:47:59.825Z,30.90
2018-07-02T15:50:28.651Z,31.40
2018-07-02T15:52:57.485Z,31.00
2018-07-02T15:55:26.308Z,31.30
2018-07-02T15:57:55.116Z,31.40
2018-07-02T16:00:23.934Z,31.40
2018-07-02T16:02:52.970Z,31.30
2018-07-02T16:05:21.550Z,31.20
2018-07-02T16:07:50.359Z,31.00
2018-07-02T16:10:19.374Z,30.90
2018-07-02T16:17:45.271Z,31.50
2018-07-02T16:20:14.088Z,30.80
2018-07-02T16:22:42.894Z,31.10
2018-07-02T16:25:11.724Z,31.50
2018-07-02T16:27:40.624Z,32.20
2018-07-02T16:30:10.374Z,32.20
2018-07-02T16:32:39.310Z,32.40
2018-07-02T16:35:08.128Z,32.00
2018-07-02T16:37:36.923Z,32.10
2018-07-02T16:40:05.895Z,32.80
2018-07-02T16:42:34.698Z,32.40
2018-07-02T16:45:03.578Z,32.20
2018-07-02T16:47:32.378Z,32.80
2018-07-02T16:50:01.350Z,32.40
2018-07-02T16:52:30.205Z,32.00
2018-07-02T16:54:58.991Z,32.00
2018-07-02T16:57:27.759Z,32.50
2018-07-02T16:59:56.573Z,32.20
2018-07-02T17:02:25.487Z,32.30
2018-07-02T17:04:54.306Z,31.90
2018-07-02T17:07:23.098Z,31.90
2018-07-02T17:09:51.917Z,32.10
2018-07-02T17:12:20.739Z,32.50
2018-07-02T17:14:49.552Z,32.60
2018-07-02T17:17:18.353Z,32.60
2018-07-02T17:19:47.159Z,32.70
2018-07-02T17:24:44.551Z,33.00
2018-07-02T17:27:13.346Z,33.00
2018-07-02T17:29:42.160Z,33.70
2018-07-02T17:32:10.967Z,33.50
2018-07-02T17:34:39.834Z,33.20
2018-07-02T17:37:08.653Z,33.20
2018-07-02T17:39:37.503Z,33.50
2018-07-02T17:42:06.606Z,33.30
2018-07-02T17:44:35.420Z,33.50
2018-07-02T17:49:32.840Z,34.30
2018-07-02T17:52:01.779Z,34.20
2018-07-02T17:54:30.932Z,34.10
2018-07-02T17:56:59.736Z,34.50
2018-07-02T17:59:28.527Z,34.60
2018-07-02T18:01:57.347Z,35.10
2018-07-02T18:04:26.145Z,35.30
2018-07-02T18:06:55.071Z,35.10
2018-07-02T18:09:23.870Z,35.80
2018-07-02T18:11:52.682Z,35.80
2018-07-02T18:14:21.485Z,35.90
2018-07-02T18:16:50.298Z,35.40
2018-07-02T18:19:19.101Z,34.50
2018-07-02T18:21:47.907Z,35.10
2018-07-02T18:24:16.710Z,35.00
2018-07-02T18:26:45.564Z,35.00
2018-07-02T18:29:14.312Z,35.40
2018-07-02T18:31:43.119Z,35.60
2018-07-02T18:34:12.327Z,36.00
2018-07-02T18:36:41.128Z,36.00
2018-07-02T18:39:11.787Z,35.70
2018-07-02T18:41:40.849Z,35.90
2018-07-02T18:44:09.660Z,36.00
2018-07-02T18:46:38.560Z,35.90
2018-07-02T18:49:07.525Z,35.80
2018-07-02T18:51:36.388Z,35.90
2018-07-02T18:54:05.214Z,36.50
2018-07-02T18:56:34.024Z,36.20
2018-07-02T18:59:02.822Z,36.50
2018-07-02T19:01:31.796Z,37.10
2018-07-02T19:04:00.623Z,37.50
2018-07-02T19:06:29.431Z,37.90
2018-07-02T19:08:58.243Z,39.00
2018-07-02T19:11:27.238Z,41.10
2018-07-02T19:13:56.043Z,41.60
2018-07-02T19:16:24.937Z,42.00
2018-07-02T19:18:53.676Z,42.20
2018-07-02T19:21:22.478Z,42.70
2018-07-02T19:23:51.292Z,43.10
2018-07-02T19:26:20.098Z,43.40
2018-07-02T19:28:48.931Z,43.70
2018-07-02T19:31:17.735Z,44.00
2018-07-02T19:33:46.547Z,44.10
2018-07-02T19:36:15.470Z,44.30
2018-07-02T19:38:44.264Z,44.30
2018-07-02T19:41:13.101Z,44.50
2018-07-02T19:43:42.630Z,44.60
2018-07-02T19:46:11.443Z,45.50
2018-07-02T19:48:40.239Z,45.10
2018-07-02T19:56:06.110Z,45.60
2018-07-02T19:58:34.928Z,45.70
2018-07-02T20:01:04.122Z,45.80
2018-07-02T20:03:32.899Z,46.10
2018-07-02T20:06:02.164Z,46.20
2018-07-02T20:08:30.968Z,46.30
2018-07-02T20:13:28.938Z,46.70
2018-07-02T20:15:58.564Z,46.90
2018-07-02T20:18:27.937Z,47.30
2018-07-02T20:20:57.367Z,47.30
2018-07-02T20:23:26.163Z,47.40
2018-07-02T20:25:54.967Z,47.70
2018-07-02T20:28:23.754Z,47.90
2018-07-02T20:30:52.546Z,47.90
2018-07-02T20:33:21.355Z,48.60
2018-07-02T20:35:50.166Z,48.60
2018-07-02T20:38:19.020Z,48.80
2018-07-02T20:40:47.799Z,48.80
2018-07-02T20:43:16.582Z,48.90
2018-07-02T20:45:45.401Z,49.10
2018-07-02T20:48:14.166Z,49.60
2018-07-02T20:50:42.986Z,49.90
2018-07-02T20:53:11.791Z,50.20
2018-07-02T20:55:40.602Z,50.20
2018-07-02T20:58:09.411Z,50.20
2018-07-02T21:00:38.198Z,50.40
2018-07-02T21:03:07.003Z,50.70
2018-07-02T21:05:35.796Z,50.60
2018-07-02T21:08:04.901Z,50.70
2018-07-02T21:10:33.722Z,50.90
2018-07-02T21:13:02.502Z,50.90
2018-07-02T21:15:31.323Z,51.00
2018-07-02T21:18:00.139Z,51.20
2018-07-02T21:20:28.947Z,51.30
2018-07-02T21:22:57.745Z,51.60
2018-07-02T21:25:26.562Z,51.50
2018-07-02T21:27:55.375Z,51.70
2018-07-02T21:30:24.175Z,51.70
2018-07-02T21:32:52.984Z,51.80
2018-07-02T21:35:21.791Z,51.90
2018-07-02T21:37:50.585Z,52.10
2018-07-02T21:40:19.383Z,52.50
2018-07-02T21:42:48.411Z,52.40
2018-07-02T21:45:17.243Z,52.40
2018-07-02T21:47:46.046Z,52.50
2018-07-02T21:50:14.847Z,52.60
2018-07-02T21:52:43.663Z,52.50
2018-07-02T21:55:12.472Z,52.40
2018-07-02T21:57:41.278Z,52.50
2018-07-02T22:00:12.138Z,52.50
2018-07-02T22:02:40.943Z,52.60
2018-07-02T22:05:10.141Z,52.60
2018-07-02T22:07:39.352Z,52.60
2018-07-02T22:10:08.366Z,52.60
2018-07-02T22:12:37.539Z,52.80
2018-07-02T22:15:06.459Z,52.90
2018-07-02T22:17:35.270Z,52.90
2018-07-02T22:20:04.629Z,53.00
2018-07-02T22:22:33.447Z,53.70
2018-07-02T22:25:02.243Z,53.30
2018-07-02T22:29:59.543Z,53.10
2018-07-02T22:32:28.355Z,53.60
2018-07-02T22:34:57.150Z,53.70
2018-07-02T22:37:25.960Z,53.90
2018-07-02T22:39:54.772Z,54.00
2018-07-02T22:42:23.591Z,55.20
2018-07-02T22:44:52.391Z,56.60
2018-07-02T22:47:21.203Z,56.10
2018-07-02T22:49:50.009Z,56.50
2018-07-02T22:52:18.826Z,56.90
2018-07-02T22:54:47.642Z,57.00
2018-07-02T22:57:16.455Z,57.30
2018-07-02T22:59:45.330Z,57.30
2018-07-02T23:02:14.144Z,57.60
2018-07-02T23:04:42.956Z,57.70
2018-07-02T23:09:40.259Z,57.70
2018-07-02T23:12:09.057Z,57.60
2018-07-02T23:14:37.850Z,57.50
2018-07-02T23:17:06.672Z,57.60
2018-07-02T23:19:35.502Z,57.60
2018-07-02T23:22:04.305Z,57.70
2018-07-02T23:24:33.111Z,57.60
2018-07-02T23:27:01.907Z,57.70
2018-07-02T23:29:30.722Z,57.90
2018-07-02T23:31:59.514Z,58.00
2018-07-02T23:34:28.324Z,57.90
2018-07-02T23:36:57.115Z,57.90
2018-07-02T23:39:25.930Z,58.00
2018-07-02T23:41:54.747Z,58.10
2018-07-02T23:44:23.552Z,58.10
2018-07-02T23:46:52.359Z,58.20
2018-07-02T23:49:21.163Z,58.40
2018-07-02T23:51:49.963Z,58.40
2018-07-02T23:54:18.780Z,58.40
2018-07-02T23:56:47.605Z,58.70
2018-07-02T23:59:16.397Z,58.90
